Rechercher aéroport 
image banner adimage banner adimage banner ad
image banner ad

3PA1 - Heart Of Lancaster Rgnl Medical Center

Situé à Lititz, United States

ICAO - 3PA1, IATA -

Données fournies par Airmate  

Information générale

Coordonnées: N40°7'59" W76°18'39"
Élévation : 419 feet MSL.
 
Voir autres Aéroports à Pennsylvania

Données opérationnelles

Special qualification required
Heure actuelle UTC:
Heure actuelle locale:
Météo à : KLNS - Lancaster ( 2 km )
METAR: KLNS 150653Z AUTO 29004KT 10SM BKN070 OVC080 18/16 A2979 RMK AO2 SLP086 T01830161
TAF: KLNS 150537Z 1506/1606 29006KT P6SM BKN060 FM151500 32010G20KT P6SM BKN050 FM160100 31007KT P6SM SCT040
Voir NOTAMs / SUP AIP / TFR affectant cet aéroport [VIEW]
Fréquences de communication: [VIEW]

Pistes:

Coordonnées de l'aéroport

Adresse: Lititz United States

Vue satellite de 3PA1